sensor_id;sensor_type;location;lat;lon;timestamp;pressure;altitude;pressure_sealevel;temperature
12126;BMP180;6126;57.908;16.490;2023-04-25T00:01:39;99951.34;;;7.00
12126;BMP180;6126;57.908;16.490;2023-04-25T00:04:05;99964.41;;;6.99
12126;BMP180;6126;57.908;16.490;2023-04-25T00:06:34;99956.72;;;6.96
12126;BMP180;6126;57.908;16.490;2023-04-25T00:09:05;99946.41;;;6.94
12126;BMP180;6126;57.908;16.490;2023-04-25T00:11:35;99954.31;;;6.91
12126;BMP180;6126;57.908;16.490;2023-04-25T00:14:03;99950.09;;;6.89
12126;BMP180;6126;57.908;16.490;2023-04-25T00:16:30;99943.41;;;6.83
12126;BMP180;6126;57.908;16.490;2023-04-25T00:19:01;99935.81;;;6.77
12126;BMP180;6126;57.908;16.490;2023-04-25T00:21:27;99927.19;;;6.77
12126;BMP180;6126;57.908;16.490;2023-04-25T00:23:54;99934.09;;;6.78
12126;BMP180;6126;57.908;16.490;2023-04-25T00:26:21;99922.84;;;6.77
12126;BMP180;6126;57.908;16.490;2023-04-25T00:28:47;99924.56;;;6.78
12126;BMP180;6126;57.908;16.490;2023-04-25T00:31:14;99914.16;;;6.78
12126;BMP180;6126;57.908;16.490;2023-04-25T00:33:40;99920.31;;;6.76
12126;BMP180;6126;57.908;16.490;2023-04-25T00:36:07;99917.06;;;6.71
12126;BMP180;6126;57.908;16.490;2023-04-25T00:38:33;99892.19;;;6.66
12126;BMP180;6126;57.908;16.490;2023-04-25T00:40:59;99901.88;;;6.62
12126;BMP180;6126;57.908;16.490;2023-04-25T00:43:26;99916.56;;;6.62
12126;BMP180;6126;57.908;16.490;2023-04-25T00:45:53;99913.97;;;6.62
12126;BMP180;6126;57.908;16.490;2023-04-25T00:48:22;99914.78;;;6.64
12126;BMP180;6126;57.908;16.490;2023-04-25T00:50:58;99914.06;;;6.60
12126;BMP180;6126;57.908;16.490;2023-04-25T00:53:27;99908.13;;;6.57
12126;BMP180;6126;57.908;16.490;2023-04-25T00:55:54;99897.94;;;6.52
12126;BMP180;6126;57.908;16.490;2023-04-25T00:58:23;99899.78;;;6.49
12126;BMP180;6126;57.908;16.490;2023-04-25T01:00:51;99920.38;;;6.53
12126;BMP180;6126;57.908;16.490;2023-04-25T01:03:18;99918.50;;;6.57
12126;BMP180;6126;57.908;16.490;2023-04-25T01:05:46;99911.63;;;6.56
12126;BMP180;6126;57.908;16.490;2023-04-25T01:08:13;99903.06;;;6.54
12126;BMP180;6126;57.908;16.490;2023-04-25T01:10:40;99922.28;;;6.50
12126;BMP180;6126;57.908;16.490;2023-04-25T01:13:06;99917.06;;;6.50
12126;BMP180;6126;57.908;16.490;2023-04-25T01:15:32;99905.00;;;6.49
12126;BMP180;6126;57.908;16.490;2023-04-25T01:17:58;99894.72;;;6.46
12126;BMP180;6126;57.908;16.490;2023-04-25T01:20:26;99901.72;;;6.44
12126;BMP180;6126;57.908;16.490;2023-04-25T01:22:54;99905.19;;;6.45
12126;BMP180;6126;57.908;16.490;2023-04-25T01:25:22;99903.44;;;6.45
12126;BMP180;6126;57.908;16.490;2023-04-25T01:27:49;99899.13;;;6.44
12126;BMP180;6126;57.908;16.490;2023-04-25T01:30:15;99887.06;;;6.43
12126;BMP180;6126;57.908;16.490;2023-04-25T01:32:42;99889.78;;;6.40
12126;BMP180;6126;57.908;16.490;2023-04-25T01:35:11;99882.06;;;6.39
12126;BMP180;6126;57.908;16.490;2023-04-25T01:37:42;99888.13;;;6.39
12126;BMP180;6126;57.908;16.490;2023-04-25T01:40:10;99903.56;;;6.42
12126;BMP180;6126;57.908;16.490;2023-04-25T01:42:42;99886.94;;;6.46
12126;BMP180;6126;57.908;16.490;2023-04-25T01:45:10;99883.56;;;6.44
12126;BMP180;6126;57.908;16.490;2023-04-25T01:47:37;99897.41;;;6.45
12126;BMP180;6126;57.908;16.490;2023-04-25T01:50:07;99893.06;;;6.45
12126;BMP180;6126;57.908;16.490;2023-04-25T01:52:34;99889.53;;;6.46
12126;BMP180;6126;57.908;16.490;2023-04-25T01:55:01;99891.34;;;6.44
12126;BMP180;6126;57.908;16.490;2023-04-25T01:57:28;99869.75;;;6.44
12126;BMP180;6126;57.908;16.490;2023-04-25T02:00:00;99868.19;;;6.40
12126;BMP180;6126;57.908;16.490;2023-04-25T02:02:26;99858.00;;;6.35
12126;BMP180;6126;57.908;16.490;2023-04-25T02:04:52;99850.34;;;6.32
12126;BMP180;6126;57.908;16.490;2023-04-25T02:07:20;99843.56;;;6.28
12126;BMP180;6126;57.908;16.490;2023-04-25T02:09:46;99829.75;;;6.28
12126;BMP180;6126;57.908;16.490;2023-04-25T02:12:12;99843.69;;;6.25
12126;BMP180;6126;57.908;16.490;2023-04-25T02:14:38;99840.13;;;6.28
12126;BMP180;6126;57.908;16.490;2023-04-25T02:17:04;99832.41;;;6.26
12126;BMP180;6126;57.908;16.490;2023-04-25T02:19:31;99844.47;;;6.27
12126;BMP180;6126;57.908;16.490;2023-04-25T02:21:57;99833.19;;;6.28
12126;BMP180;6126;57.908;16.490;2023-04-25T02:24:23;99834.22;;;6.24
12126;BMP180;6126;57.908;16.490;2023-04-25T02:26:49;99833.44;;;6.22
12126;BMP180;6126;57.908;16.490;2023-04-25T02:29:16;99837.78;;;6.22
12126;BMP180;6126;57.908;16.490;2023-04-25T02:31:42;99836.94;;;6.21
12126;BMP180;6126;57.908;16.490;2023-04-25T02:34:08;99837.66;;;6.25
12126;BMP180;6126;57.908;16.490;2023-04-25T02:36:34;99821.31;;;6.23
12126;BMP180;6126;57.908;16.490;2023-04-25T02:39:01;99804.91;;;6.22
12126;BMP180;6126;57.908;16.490;2023-04-25T02:41:28;99807.63;;;6.19
12126;BMP180;6126;57.908;16.490;2023-04-25T02:43:54;99805.94;;;6.18
12126;BMP180;6126;57.908;16.490;2023-04-25T02:46:20;99800.63;;;6.21
12126;BMP180;6126;57.908;16.490;2023-04-25T02:48:46;99815.22;;;6.24
12126;BMP180;6126;57.908;16.490;2023-04-25T02:51:12;99819.44;;;6.26
12126;BMP180;6126;57.908;16.490;2023-04-25T02:53:38;99822.88;;;6.27
12126;BMP180;6126;57.908;16.490;2023-04-25T02:56:04;99828.00;;;6.28
12126;BMP180;6126;57.908;16.490;2023-04-25T02:58:30;99835.00;;;6.26
12126;BMP180;6126;57.908;16.490;2023-04-25T03:00:56;99833.31;;;6.25
12126;BMP180;6126;57.908;16.490;2023-04-25T03:03:22;99827.28;;;6.25
12126;BMP180;6126;57.908;16.490;2023-04-25T03:05:51;99834.28;;;6.23
12126;BMP180;6126;57.908;16.490;2023-04-25T03:08:18;99836.09;;;6.21
12126;BMP180;6126;57.908;16.490;2023-04-25T03:10:45;99842.25;;;6.18
12126;BMP180;6126;57.908;16.490;2023-04-25T03:13:11;99833.69;;;6.16
12126;BMP180;6126;57.908;16.490;2023-04-25T03:15:38;99842.38;;;6.15
12126;BMP180;6126;57.908;16.490;2023-04-25T03:18:04;99839.72;;;6.17
12126;BMP180;6126;57.908;16.490;2023-04-25T03:20:30;99850.91;;;6.17
12126;BMP180;6126;57.908;16.490;2023-04-25T03:22:56;99846.53;;;6.19
12126;BMP180;6126;57.908;16.490;2023-04-25T03:25:22;99839.59;;;6.20
12126;BMP180;6126;57.908;16.490;2023-04-25T03:27:48;99848.88;;;6.25
12126;BMP180;6126;57.908;16.490;2023-04-25T03:30:14;99841.88;;;6.27
12126;BMP180;6126;57.908;16.490;2023-04-25T03:32:40;99833.09;;;6.31
12126;BMP180;6126;57.908;16.490;2023-04-25T03:35:06;99847.75;;;6.32
12126;BMP180;6126;57.908;16.490;2023-04-25T03:37:32;99845.97;;;6.33
12126;BMP180;6126;57.908;16.490;2023-04-25T03:39:58;99832.03;;;6.35
12126;BMP180;6126;57.908;16.490;2023-04-25T03:42:23;99821.63;;;6.37
12126;BMP180;6126;57.908;16.490;2023-04-25T03:44:51;99821.75;;;6.34
12126;BMP180;6126;57.908;16.490;2023-04-25T03:47:17;99813.88;;;6.35
12126;BMP180;6126;57.908;16.490;2023-04-25T03:49:43;99822.59;;;6.34
12126;BMP180;6126;57.908;16.490;2023-04-25T03:52:08;99828.66;;;6.33
12126;BMP180;6126;57.908;16.490;2023-04-25T03:54:34;99826.19;;;6.30
12126;BMP180;6126;57.908;16.490;2023-04-25T03:57:00;99834.94;;;6.28
12126;BMP180;6126;57.908;16.490;2023-04-25T03:59:26;99832.28;;;6.29
12126;BMP180;6126;57.908;16.490;2023-04-25T04:01:52;99833.84;;;6.33
12126;BMP180;6126;57.908;16.490;2023-04-25T04:04:18;99832.13;;;6.34
12126;BMP180;6126;57.908;16.490;2023-04-25T04:06:44;99832.16;;;6.32
12126;BMP180;6126;57.908;16.490;2023-04-25T04:09:11;99835.59;;;6.33
12126;BMP180;6126;57.908;16.490;2023-04-25T04:11:39;99841.72;;;6.32
12126;BMP180;6126;57.908;16.490;2023-04-25T04:14:08;99839.03;;;6.33
12126;BMP180;6126;57.908;16.490;2023-04-25T04:16:35;99845.84;;;6.36
12126;BMP180;6126;57.908;16.490;2023-04-25T04:19:02;99854.47;;;6.36
12126;BMP180;6126;57.908;16.490;2023-04-25T04:21:28;99831.03;;;6.39
12126;BMP180;6126;57.908;16.490;2023-04-25T04:23:54;99852.63;;;6.40
12126;BMP180;6126;57.908;16.490;2023-04-25T04:26:20;99835.16;;;6.43
12126;BMP180;6126;57.908;16.490;2023-04-25T04:28:50;99839.34;;;6.47
12126;BMP180;6126;57.908;16.490;2023-04-25T04:31:17;99844.41;;;6.50
12126;BMP180;6126;57.908;16.490;2023-04-25T04:33:45;99849.47;;;6.53
12126;BMP180;6126;57.908;16.490;2023-04-25T04:36:12;99848.56;;;6.54
12126;BMP180;6126;57.908;16.490;2023-04-25T04:38:39;99846.88;;;6.53
12126;BMP180;6126;57.908;16.490;2023-04-25T04:41:06;99850.31;;;6.53
12126;BMP180;6126;57.908;16.490;2023-04-25T04:43:32;99852.88;;;6.55
12126;BMP180;6126;57.908;16.490;2023-04-25T04:46:00;99855.25;;;6.59
12126;BMP180;6126;57.908;16.490;2023-04-25T04:48:26;99852.59;;;6.61
12126;BMP180;6126;57.908;16.490;2023-04-25T04:50:53;99844.69;;;6.64
12126;BMP180;6126;57.908;16.490;2023-04-25T04:53:19;99854.94;;;6.67
12126;BMP180;6126;57.908;16.490;2023-04-25T04:55:45;99850.53;;;6.69
12126;BMP180;6126;57.908;16.490;2023-04-25T04:58:11;99849.56;;;6.71
12126;BMP180;6126;57.908;16.490;2023-04-25T05:00:37;99854.75;;;6.71
12126;BMP180;6126;57.908;16.490;2023-04-25T05:03:03;99849.56;;;6.71
12126;BMP180;6126;57.908;16.490;2023-04-25T05:05:31;99846.13;;;6.71
12126;BMP180;6126;57.908;16.490;2023-04-25T05:07:57;99839.19;;;6.71
12126;BMP180;6126;57.908;16.490;2023-04-25T05:10:22;99834.84;;;6.72
12126;BMP180;6126;57.908;16.490;2023-04-25T05:12:48;99833.16;;;6.71
12126;BMP180;6126;57.908;16.490;2023-04-25T05:15:14;99830.75;;;6.66
12126;BMP180;6126;57.908;16.490;2023-04-25T05:17:40;99843.78;;;6.65
12126;BMP180;6126;57.908;16.490;2023-04-25T05:20:08;99849.88;;;6.64
12126;BMP180;6126;57.908;16.490;2023-04-25T05:22:36;99852.44;;;6.65
12126;BMP180;6126;57.908;16.490;2023-04-25T05:25:03;99847.16;;;6.67
12126;BMP180;6126;57.908;16.490;2023-04-25T05:27:29;99850.53;;;6.69
12126;BMP180;6126;57.908;16.490;2023-04-25T05:29:55;99842.69;;;6.70
12126;BMP180;6126;57.908;16.490;2023-04-25T05:32:21;99834.13;;;6.68
12126;BMP180;6126;57.908;16.490;2023-04-25T05:34:47;99834.13;;;6.68
12126;BMP180;6126;57.908;16.490;2023-04-25T05:37:12;99837.56;;;6.69
12126;BMP180;6126;57.908;16.490;2023-04-25T05:39:38;99836.63;;;6.70
12126;BMP180;6126;57.908;16.490;2023-04-25T05:42:04;99845.22;;;6.72
12126;BMP180;6126;57.908;16.490;2023-04-25T05:44:30;99837.38;;;6.73
12126;BMP180;6126;57.908;16.490;2023-04-25T05:46:57;99836.50;;;6.73
12126;BMP180;6126;57.908;16.490;2023-04-25T05:49:22;99838.13;;;6.75
12126;BMP180;6126;57.908;16.490;2023-04-25T05:51:48;99849.25;;;6.78
12126;BMP180;6126;57.908;16.490;2023-04-25T05:54:14;99846.53;;;6.81
12126;BMP180;6126;57.908;16.490;2023-04-25T05:56:40;99848.88;;;6.87
12126;BMP180;6126;57.908;16.490;2023-04-25T05:59:06;99852.16;;;6.91
12126;BMP180;6126;57.908;16.490;2023-04-25T06:01:32;99855.50;;;6.94
12126;BMP180;6126;57.908;16.490;2023-04-25T06:03:58;99852.81;;;6.96
12126;BMP180;6126;57.908;16.490;2023-04-25T06:06:24;99848.41;;;6.98
12126;BMP180;6126;57.908;16.490;2023-04-25T06:08:49;99848.28;;;7.01
12126;BMP180;6126;57.908;16.490;2023-04-25T06:11:16;99862.91;;;7.03
12126;BMP180;6126;57.908;16.490;2023-04-25T06:13:41;99852.50;;;7.03
12126;BMP180;6126;57.908;16.490;2023-04-25T06:16:07;99841.97;;;7.06
12126;BMP180;6126;57.908;16.490;2023-04-25T06:18:33;99842.75;;;7.08
12126;BMP180;6126;57.908;16.490;2023-04-25T06:20:59;99836.53;;;7.12
12126;BMP180;6126;57.908;16.490;2023-04-25T06:23:25;99839.72;;;7.18
12126;BMP180;6126;57.908;16.490;2023-04-25T06:25:51;99831.72;;;7.23
12126;BMP180;6126;57.908;16.490;2023-04-25T06:28:17;99832.38;;;7.28
12126;BMP180;6126;57.908;16.490;2023-04-25T06:30:42;99830.53;;;7.30
12126;BMP180;6126;57.908;16.490;2023-04-25T06:33:08;99838.13;;;7.34
12126;BMP180;6126;57.908;16.490;2023-04-25T06:35:34;99835.34;;;7.38
12126;BMP180;6126;57.908;16.490;2023-04-25T06:38:00;99840.41;;;7.41
12126;BMP180;6126;57.908;16.490;2023-04-25T06:40:26;99834.16;;;7.45
12126;BMP180;6126;57.908;16.490;2023-04-25T06:42:52;99835.75;;;7.48
12126;BMP180;6126;57.908;16.490;2023-04-25T06:45:18;99831.28;;;7.51
12126;BMP180;6126;57.908;16.490;2023-04-25T06:47:44;99838.03;;;7.55
12126;BMP180;6126;57.908;16.490;2023-04-25T06:50:10;99832.69;;;7.58
12126;BMP180;6126;57.908;16.490;2023-04-25T06:52:36;99837.78;;;7.61
12126;BMP180;6126;57.908;16.490;2023-04-25T06:55:02;99829.69;;;7.67
12126;BMP180;6126;57.908;16.490;2023-04-25T06:57:29;99829.50;;;7.71
12126;BMP180;6126;57.908;16.490;2023-04-25T06:59:55;99821.44;;;7.76
12126;BMP180;6126;57.908;16.490;2023-04-25T07:02:21;99839.41;;;7.82
12126;BMP180;6126;57.908;16.490;2023-04-25T07:04:47;99839.16;;;7.86
12126;BMP180;6126;57.908;16.490;2023-04-25T07:07:13;99831.31;;;7.88
12126;BMP180;6126;57.908;16.490;2023-04-25T07:09:39;99835.44;;;7.92
12126;BMP180;6126;57.908;16.490;2023-04-25T07:12:05;99833.63;;;7.94
12126;BMP180;6126;57.908;16.490;2023-04-25T07:14:31;99829.19;;;7.96
12126;BMP180;6126;57.908;16.490;2023-04-25T07:16:57;99831.66;;;7.98
12126;BMP180;6126;57.908;16.490;2023-04-25T07:19:23;99832.44;;;8.00
12126;BMP180;6126;57.908;16.490;2023-04-25T07:21:52;99837.50;;;8.03
12126;BMP180;6126;57.908;16.490;2023-04-25T07:24:18;99840.75;;;8.08
12126;BMP180;6126;57.908;16.490;2023-04-25T07:26:44;99842.44;;;8.09
12126;BMP180;6126;57.908;16.490;2023-04-25T07:29:10;99835.41;;;8.11
12126;BMP180;6126;57.908;16.490;2023-04-25T07:31:36;99834.34;;;8.15
12126;BMP180;6126;57.908;16.490;2023-04-25T07:34:02;99830.00;;;8.16
12126;BMP180;6126;57.908;16.490;2023-04-25T07:36:28;99831.63;;;8.18
12126;BMP180;6126;57.908;16.490;2023-04-25T07:38:54;99834.06;;;8.21
12126;BMP180;6126;57.908;16.490;2023-04-25T07:41:20;99833.91;;;8.24
12126;BMP180;6126;57.908;16.490;2023-04-25T07:43:45;99836.38;;;8.27
12126;BMP180;6126;57.908;16.490;2023-04-25T07:46:11;99830.09;;;8.31
12126;BMP180;6126;57.908;16.490;2023-04-25T07:48:37;99831.69;;;8.33
12126;BMP180;6126;57.908;16.490;2023-04-25T07:51:03;99834.09;;;8.38
12126;BMP180;6126;57.908;16.490;2023-04-25T07:53:30;99839.09;;;8.42
12126;BMP180;6126;57.908;16.490;2023-04-25T07:55:58;99845.13;;;8.43
12126;BMP180;6126;57.908;16.490;2023-04-25T07:58:23;99840.84;;;8.42
12126;BMP180;6126;57.908;16.490;2023-04-25T08:00:49;99839.91;;;8.43
12126;BMP180;6126;57.908;16.490;2023-04-25T08:03:15;99831.19;;;8.44
12126;BMP180;6126;57.908;16.490;2023-04-25T08:05:41;99833.66;;;8.47
12126;BMP180;6126;57.908;16.490;2023-04-25T08:08:07;99846.53;;;8.50
12126;BMP180;6126;57.908;16.490;2023-04-25T08:10:33;99847.28;;;8.52
12126;BMP180;6126;57.908;16.490;2023-04-25T08:13:00;99855.97;;;8.52
12126;BMP180;6126;57.908;16.490;2023-04-25T08:15:25;99852.47;;;8.52
12126;BMP180;6126;57.908;16.490;2023-04-25T08:17:52;99858.63;;;8.51
12126;BMP180;6126;57.908;16.490;2023-04-25T08:20:18;99861.16;;;8.52
12126;BMP180;6126;57.908;16.490;2023-04-25T08:22:43;99866.28;;;8.54
12126;BMP180;6126;57.908;16.490;2023-04-25T08:25:09;99854.25;;;8.51
12126;BMP180;6126;57.908;16.490;2023-04-25T08:27:35;99860.22;;;8.53
12126;BMP180;6126;57.908;16.490;2023-04-25T08:30:03;99855.81;;;8.55
12126;BMP180;6126;57.908;16.490;2023-04-25T08:32:29;99850.59;;;8.55
12126;BMP180;6126;57.908;16.490;2023-04-25T08:34:55;99858.31;;;8.57
12126;BMP180;6126;57.908;16.490;2023-04-25T08:37:21;99864.31;;;8.59
12126;BMP180;6126;57.908;16.490;2023-04-25T08:39:47;99859.94;;;8.59
12126;BMP180;6126;57.908;16.490;2023-04-25T08:42:18;99872.88;;;8.61
12126;BMP180;6126;57.908;16.490;2023-04-25T08:44:48;99865.13;;;8.59
12126;BMP180;6126;57.908;16.490;2023-04-25T08:47:14;99866.91;;;8.59
12126;BMP180;6126;57.908;16.490;2023-04-25T08:49:45;99869.50;;;8.59
12126;BMP180;6126;57.908;16.490;2023-04-25T08:52:13;99875.66;;;8.58
12126;BMP180;6126;57.908;16.490;2023-04-25T08:54:44;99883.47;;;8.58
12126;BMP180;6126;57.908;16.490;2023-04-25T08:57:15;99863.63;;;8.55
12126;BMP180;6126;57.908;16.490;2023-04-25T08:59:41;99876.69;;;8.54
12126;BMP180;6126;57.908;16.490;2023-04-25T09:02:12;99870.72;;;8.52
12126;BMP180;6126;57.908;16.490;2023-04-25T09:04:43;99864.66;;;8.51
12126;BMP180;6126;57.908;16.490;2023-04-25T09:07:10;99861.16;;;8.52
12126;BMP180;6126;57.908;16.490;2023-04-25T09:09:36;99863.63;;;8.55
12126;BMP180;6126;57.908;16.490;2023-04-25T09:12:02;99861.84;;;8.56
12126;BMP180;6126;57.908;16.490;2023-04-25T09:14:28;99862.69;;;8.56
12126;BMP180;6126;57.908;16.490;2023-04-25T09:16:59;99858.25;;;8.58
12126;BMP180;6126;57.908;16.490;2023-04-25T09:19:32;99863.25;;;8.62
12126;BMP180;6126;57.908;16.490;2023-04-25T09:22:01;99870.59;;;8.71
12126;BMP180;6126;57.908;16.490;2023-04-25T09:24:42;99872.63;;;8.83
12126;BMP180;6126;57.908;16.490;2023-04-25T09:27:12;99866.00;;;8.93
12126;BMP180;6126;57.908;16.490;2023-04-25T09:29:40;99870.00;;;9.00
12126;BMP180;6126;57.908;16.490;2023-04-25T09:32:20;99874.84;;;9.07
12126;BMP180;6126;57.908;16.490;2023-04-25T09:34:52;99870.88;;;9.17
12126;BMP180;6126;57.908;16.490;2023-04-25T09:37:26;99871.38;;;9.23
12126;BMP180;6126;57.908;16.490;2023-04-25T09:40:06;99860.72;;;9.28
12126;BMP180;6126;57.908;16.490;2023-04-25T09:42:35;99866.63;;;9.31
12126;BMP180;6126;57.908;16.490;2023-04-25T09:45:03;99868.34;;;9.32
12126;BMP180;6126;57.908;16.490;2023-04-25T09:47:30;99866.63;;;9.31
12126;BMP180;6126;57.908;16.490;2023-04-25T09:49:56;99863.19;;;9.31
12126;BMP180;6126;57.908;16.490;2023-04-25T09:52:24;99862.50;;;9.27
12126;BMP180;6126;57.908;16.490;2023-04-25T09:54:51;99866.09;;;9.25
12126;BMP180;6126;57.908;16.490;2023-04-25T09:57:23;99857.56;;;9.22
12126;BMP180;6126;57.908;16.490;2023-04-25T09:59:54;99861.91;;;9.23
12126;BMP180;6126;57.908;16.490;2023-04-25T10:02:25;99860.63;;;9.29
12126;BMP180;6126;57.908;16.490;2023-04-25T10:04:54;99857.19;;;9.46
12126;BMP180;6126;57.908;16.490;2023-04-25T10:07:25;99852.84;;;9.61
12126;BMP180;6126;57.908;16.490;2023-04-25T10:10:03;99869.13;;;9.82
12126;BMP180;6126;57.908;16.490;2023-04-25T10:12:30;99859.84;;;9.93
12126;BMP180;6126;57.908;16.490;2023-04-25T10:14:58;99856.72;;;10.02
12126;BMP180;6126;57.908;16.490;2023-04-25T10:17:26;99858.16;;;10.07
12126;BMP180;6126;57.908;16.490;2023-04-25T10:19:54;99854.53;;;10.10
12126;BMP180;6126;57.908;16.490;2023-04-25T10:22:38;99857.16;;;10.10
12126;BMP180;6126;57.908;16.490;2023-04-25T10:25:06;99857.50;;;10.04
12126;BMP180;6126;57.908;16.490;2023-04-25T10:27:34;99858.84;;;9.95
12126;BMP180;6126;57.908;16.490;2023-04-25T10:30:13;99859.28;;;9.86
12126;BMP180;6126;57.908;16.490;2023-04-25T10:32:44;99852.88;;;9.77
12126;BMP180;6126;57.908;16.490;2023-04-25T10:35:29;99855.28;;;9.64
12126;BMP180;6126;57.908;16.490;2023-04-25T10:40:26;99858.91;;;9.45
12126;BMP180;6126;57.908;16.490;2023-04-25T10:42:53;99849.91;;;9.35
12126;BMP180;6126;57.908;16.490;2023-04-25T10:45:22;99857.13;;;9.30
12126;BMP180;6126;57.908;16.490;2023-04-25T10:47:48;99859.13;;;9.25
12126;BMP180;6126;57.908;16.490;2023-04-25T10:50:15;99855.75;;;9.23
12126;BMP180;6126;57.908;16.490;2023-04-25T10:52:44;99854.06;;;9.23
12126;BMP180;6126;57.908;16.490;2023-04-25T10:55:10;99858.13;;;9.28
12126;BMP180;6126;57.908;16.490;2023-04-25T10:57:41;99857.81;;;9.34
12126;BMP180;6126;57.908;16.490;2023-04-25T11:05:35;99864.31;;;9.42
12126;BMP180;6126;57.908;16.490;2023-04-25T11:08:01;99876.59;;;9.40
12126;BMP180;6126;57.908;16.490;2023-04-25T11:10:31;99870.00;;;9.33
12126;BMP180;6126;57.908;16.490;2023-04-25T11:12:58;99869.38;;;9.28
12126;BMP180;6126;57.908;16.490;2023-04-25T11:15:25;99875.66;;;9.24
12126;BMP180;6126;57.908;16.490;2023-04-25T11:17:52;99866.41;;;9.19
12126;BMP180;6126;57.908;16.490;2023-04-25T11:20:19;99874.53;;;9.13
12126;BMP180;6126;57.908;16.490;2023-04-25T11:22:46;99879.91;;;9.10
12126;BMP180;6126;57.908;16.490;2023-04-25T11:25:15;99886.94;;;9.08
12126;BMP180;6126;57.908;16.490;2023-04-25T11:30:18;99894.16;;;9.03
12126;BMP180;6126;57.908;16.490;2023-04-25T11:32:44;99885.59;;;9.01
12126;BMP180;6126;57.908;16.490;2023-04-25T11:35:11;99877.84;;;9.00
12126;BMP180;6126;57.908;16.490;2023-04-25T11:37:39;99877.97;;;8.97
12126;BMP180;6126;57.908;16.490;2023-04-25T11:40:07;99889.19;;;8.99
12126;BMP180;6126;57.908;16.490;2023-04-25T11:42:34;99883.81;;;9.02
12126;BMP180;6126;57.908;16.490;2023-04-25T11:45:04;99884.50;;;9.05
12126;BMP180;6126;57.908;16.490;2023-04-25T11:47:33;99880.97;;;9.06
12126;BMP180;6126;57.908;16.490;2023-04-25T11:50:04;99882.56;;;9.09
12126;BMP180;6126;57.908;16.490;2023-04-25T11:52:47;99878.06;;;9.12
12126;BMP180;6126;57.908;16.490;2023-04-25T11:55:20;99879.69;;;9.15
12126;BMP180;6126;57.908;16.490;2023-04-25T11:57:49;99869.78;;;9.21
12126;BMP180;6126;57.908;16.490;2023-04-25T12:00:18;99865.00;;;9.29
12126;BMP180;6126;57.908;16.490;2023-04-25T12:02:53;99860.97;;;9.40
12126;BMP180;6126;57.908;16.490;2023-04-25T12:05:21;99867.44;;;9.49
12126;BMP180;6126;57.908;16.490;2023-04-25T12:07:49;99877.31;;;9.59
12126;BMP180;6126;57.908;16.490;2023-04-25T12:10:17;99873.31;;;9.69
12126;BMP180;6126;57.908;16.490;2023-04-25T12:12:45;99863.31;;;9.77
12126;BMP180;6126;57.908;16.490;2023-04-25T12:15:18;99857.78;;;9.83
12126;BMP180;6126;57.908;16.490;2023-04-25T12:17:50;99871.41;;;9.87
12126;BMP180;6126;57.908;16.490;2023-04-25T12:20:20;99859.84;;;9.93
12126;BMP180;6126;57.908;16.490;2023-04-25T12:22:49;99868.00;;;10.02
12126;BMP180;6126;57.908;16.490;2023-04-25T12:25:43;99876.97;;;10.14
12126;BMP180;6126;57.908;16.490;2023-04-25T12:28:22;99880.16;;;10.18
12126;BMP180;6126;57.908;16.490;2023-04-25T12:33:35;99871.56;;;10.32
12126;BMP180;6126;57.908;16.490;2023-04-25T12:36:06;99868.63;;;10.38
12126;BMP180;6126;57.908;16.490;2023-04-25T12:38:41;99862.97;;;10.45
12126;BMP180;6126;57.908;16.490;2023-04-25T12:41:08;99860.00;;;10.51
12126;BMP180;6126;57.908;16.490;2023-04-25T12:43:34;99858.81;;;10.56
12126;BMP180;6126;57.908;16.490;2023-04-25T12:46:01;99856.91;;;10.60
12126;BMP180;6126;57.908;16.490;2023-04-25T12:48:27;99860.81;;;10.67
12126;BMP180;6126;57.908;16.490;2023-04-25T12:50:53;99864.69;;;10.75
12126;BMP180;6126;57.908;16.490;2023-04-25T12:53:20;99861.75;;;10.81
12126;BMP180;6126;57.908;16.490;2023-04-25T12:55:48;99868.28;;;10.88
12126;BMP180;6126;57.908;16.490;2023-04-25T12:58:16;99870.56;;;10.94
12126;BMP180;6126;57.908;16.490;2023-04-25T13:00:43;99871.22;;;10.97
12126;BMP180;6126;57.908;16.490;2023-04-25T13:03:10;99866.81;;;10.98
12126;BMP180;6126;57.908;16.490;2023-04-25T13:05:37;99869.53;;;10.96
12126;BMP180;6126;57.908;16.490;2023-04-25T13:08:03;99864.56;;;10.92
12126;BMP180;6126;57.908;16.490;2023-04-25T13:10:30;99859.59;;;10.87
12126;BMP180;6126;57.908;16.490;2023-04-25T13:12:56;99865.84;;;10.85
12126;BMP180;6126;57.908;16.490;2023-04-25T13:15:22;99876.47;;;10.82
12126;BMP180;6126;57.908;16.490;2023-04-25T13:17:49;99868.81;;;10.79
12126;BMP180;6126;57.908;16.490;2023-04-25T13:20:14;99866.28;;;10.77
12126;BMP180;6126;57.908;16.490;2023-04-25T13:22:42;99871.63;;;10.76
12126;BMP180;6126;57.908;16.490;2023-04-25T13:25:09;99872.44;;;10.77
12126;BMP180;6126;57.908;16.490;2023-04-25T13:27:36;99872.53;;;10.75
12126;BMP180;6126;57.908;16.490;2023-04-25T13:30:04;99869.06;;;10.75
12126;BMP180;6126;57.908;16.490;2023-04-25T13:32:34;99864.84;;;10.72
12126;BMP180;6126;57.908;16.490;2023-04-25T13:35:05;99864.13;;;10.70
12126;BMP180;6126;57.908;16.490;2023-04-25T13:37:31;99864.19;;;10.69
12126;BMP180;6126;57.908;16.490;2023-04-25T13:40:07;99876.50;;;10.67
12126;BMP180;6126;57.908;16.490;2023-04-25T13:42:35;99878.53;;;10.62
12126;BMP180;6126;57.908;16.490;2023-04-25T13:45:02;99871.63;;;10.61
12126;BMP180;6126;57.908;16.490;2023-04-25T13:47:29;99872.56;;;10.60
12126;BMP180;6126;57.908;16.490;2023-04-25T13:49:56;99858.75;;;10.58
12126;BMP180;6126;57.908;16.490;2023-04-25T13:52:22;99856.97;;;10.58
12126;BMP180;6126;57.908;16.490;2023-04-25T13:54:50;99848.19;;;10.59
12126;BMP180;6126;57.908;16.490;2023-04-25T13:57:17;99842.97;;;10.59
12126;BMP180;6126;57.908;16.490;2023-04-25T13:59:43;99859.16;;;10.66
12126;BMP180;6126;57.908;16.490;2023-04-25T14:02:09;99859.75;;;10.71
12126;BMP180;6126;57.908;16.490;2023-04-25T14:04:35;99859.56;;;10.74
12126;BMP180;6126;57.908;16.490;2023-04-25T14:07:02;99854.09;;;10.78
12126;BMP180;6126;57.908;16.490;2023-04-25T14:09:29;99866.78;;;10.84
12126;BMP180;6126;57.908;16.490;2023-04-25T14:11:55;99868.97;;;10.91
12126;BMP180;6126;57.908;16.490;2023-04-25T14:14:22;99864.97;;;11.00
12126;BMP180;6126;57.908;16.490;2023-04-25T14:16:49;99858.47;;;11.07
12126;BMP180;6126;57.908;16.490;2023-04-25T14:19:17;99855.50;;;11.12
12126;BMP180;6126;57.908;16.490;2023-04-25T14:21:43;99853.63;;;11.14
12126;BMP180;6126;57.908;16.490;2023-04-25T14:24:09;99856.91;;;11.18
12126;BMP180;6126;57.908;16.490;2023-04-25T14:26:37;99863.63;;;11.22
12126;BMP180;6126;57.908;16.490;2023-04-25T14:29:07;99855.69;;;11.23
12126;BMP180;6126;57.908;16.490;2023-04-25T14:31:35;99861.69;;;11.25
12126;BMP180;6126;57.908;16.490;2023-04-25T14:34:02;99858.78;;;11.30